sensor_id;sensor_type;location;lat;lon;timestamp;temperature;humidity
68354;DHT22;55274;43.060;25.618;2024-01-25T00:01:13;0.00;99.90
68354;DHT22;55274;43.060;25.618;2024-01-25T00:03:39;-0.10;99.90
68354;DHT22;55274;43.060;25.618;2024-01-25T00:06:05;-0.10;99.90
68354;DHT22;55274;43.060;25.618;2024-01-25T00:08:31;-0.10;99.90
68354;DHT22;55274;43.060;25.618;2024-01-25T00:10:57;-0.20;99.90
68354;DHT22;55274;43.060;25.618;2024-01-25T00:13:23;-0.20;99.90
68354;DHT22;55274;43.060;25.618;2024-01-25T00:15:49;-0.20;99.90
68354;DHT22;55274;43.060;25.618;2024-01-25T00:18:15;-0.20;99.90
68354;DHT22;55274;43.060;25.618;2024-01-25T00:20:41;-0.20;99.90
68354;DHT22;55274;43.060;25.618;2024-01-25T00:23:07;-0.30;99.90
68354;DHT22;55274;43.060;25.618;2024-01-25T00:25:33;-0.30;99.90
68354;DHT22;55274;43.060;25.618;2024-01-25T00:27:58;-0.20;99.90
68354;DHT22;55274;43.060;25.618;2024-01-25T00:30:24;-0.30;99.90
68354;DHT22;55274;43.060;25.618;2024-01-25T00:32:50;-0.20;99.90
68354;DHT22;55274;43.060;25.618;2024-01-25T00:35:16;-0.20;99.90
68354;DHT22;55274;43.060;25.618;2024-01-25T00:37:42;-0.20;99.90
68354;DHT22;55274;43.060;25.618;2024-01-25T00:40:08;-0.20;99.90
68354;DHT22;55274;43.060;25.618;2024-01-25T00:42:41;-0.20;99.90
68354;DHT22;55274;43.060;25.618;2024-01-25T00:45:08;-0.20;99.90
68354;DHT22;55274;43.060;25.618;2024-01-25T00:47:34;-0.20;99.90
68354;DHT22;55274;43.060;25.618;2024-01-25T00:50:00;-0.20;99.90
68354;DHT22;55274;43.060;25.618;2024-01-25T00:52:26;-0.20;99.90
68354;DHT22;55274;43.060;25.618;2024-01-25T00:54:52;-0.30;99.90
68354;DHT22;55274;43.060;25.618;2024-01-25T00:57:20;-0.30;99.90
68354;DHT22;55274;43.060;25.618;2024-01-25T00:59:46;-0.30;99.90
68354;DHT22;55274;43.060;25.618;2024-01-25T01:02:13;-0.30;99.90
68354;DHT22;55274;43.060;25.618;2024-01-25T01:04:39;-0.30;99.90
68354;DHT22;55274;43.060;25.618;2024-01-25T01:07:06;-0.30;99.90
68354;DHT22;55274;43.060;25.618;2024-01-25T01:09:32;-0.30;99.90
68354;DHT22;55274;43.060;25.618;2024-01-25T01:11:58;-0.20;99.90
68354;DHT22;55274;43.060;25.618;2024-01-25T01:14:24;-0.30;99.90
68354;DHT22;55274;43.060;25.618;2024-01-25T01:16:50;-0.30;99.90
68354;DHT22;55274;43.060;25.618;2024-01-25T01:19:18;-0.30;99.90
68354;DHT22;55274;43.060;25.618;2024-01-25T01:21:44;-0.30;99.90
68354;DHT22;55274;43.060;25.618;2024-01-25T01:24:10;-0.30;99.90
68354;DHT22;55274;43.060;25.618;2024-01-25T01:26:37;-0.30;99.90
68354;DHT22;55274;43.060;25.618;2024-01-25T01:29:03;-0.30;99.90
68354;DHT22;55274;43.060;25.618;2024-01-25T01:31:29;-0.30;99.90
68354;DHT22;55274;43.060;25.618;2024-01-25T01:33:55;-0.30;99.90
68354;DHT22;55274;43.060;25.618;2024-01-25T01:36:21;-0.30;99.90
68354;DHT22;55274;43.060;25.618;2024-01-25T01:38:47;-0.30;99.90
68354;DHT22;55274;43.060;25.618;2024-01-25T01:41:13;-0.30;99.90
68354;DHT22;55274;43.060;25.618;2024-01-25T01:43:39;-0.30;99.90
68354;DHT22;55274;43.060;25.618;2024-01-25T01:46:17;-0.30;99.90
68354;DHT22;55274;43.060;25.618;2024-01-25T01:48:46;-0.30;99.90
68354;DHT22;55274;43.060;25.618;2024-01-25T01:51:12;-0.30;99.90
68354;DHT22;55274;43.060;25.618;2024-01-25T01:53:38;-0.30;99.90
68354;DHT22;55274;43.060;25.618;2024-01-25T01:56:04;-0.20;99.90
68354;DHT22;55274;43.060;25.618;2024-01-25T01:58:31;-0.20;99.90
68354;DHT22;55274;43.060;25.618;2024-01-25T02:00:59;-0.20;99.90
68354;DHT22;55274;43.060;25.618;2024-01-25T02:03:25;-0.20;99.90
68354;DHT22;55274;43.060;25.618;2024-01-25T02:05:51;-0.30;99.90
68354;DHT22;55274;43.060;25.618;2024-01-25T02:08:17;-0.30;99.90
68354;DHT22;55274;43.060;25.618;2024-01-25T02:10:42;-0.30;99.90
68354;DHT22;55274;43.060;25.618;2024-01-25T02:13:08;-0.30;99.90
68354;DHT22;55274;43.060;25.618;2024-01-25T02:15:34;-0.30;99.90
68354;DHT22;55274;43.060;25.618;2024-01-25T02:18:00;-0.20;99.90
68354;DHT22;55274;43.060;25.618;2024-01-25T02:20:26;-0.20;99.90
68354;DHT22;55274;43.060;25.618;2024-01-25T02:22:52;-0.20;99.90
68354;DHT22;55274;43.060;25.618;2024-01-25T02:25:18;-0.20;99.90
68354;DHT22;55274;43.060;25.618;2024-01-25T02:27:44;-0.20;99.90
68354;DHT22;55274;43.060;25.618;2024-01-25T02:30:09;-0.20;99.90
68354;DHT22;55274;43.060;25.618;2024-01-25T02:32:35;-0.20;99.90
68354;DHT22;55274;43.060;25.618;2024-01-25T02:35:01;-0.20;99.90
68354;DHT22;55274;43.060;25.618;2024-01-25T02:37:27;-0.20;99.90
68354;DHT22;55274;43.060;25.618;2024-01-25T02:39:53;-0.20;99.90
68354;DHT22;55274;43.060;25.618;2024-01-25T02:42:19;-0.20;99.90
68354;DHT22;55274;43.060;25.618;2024-01-25T02:44:45;-0.20;99.90
68354;DHT22;55274;43.060;25.618;2024-01-25T02:47:11;-0.20;99.90
68354;DHT22;55274;43.060;25.618;2024-01-25T02:49:36;-0.20;99.90
68354;DHT22;55274;43.060;25.618;2024-01-25T02:52:02;-0.30;99.90
68354;DHT22;55274;43.060;25.618;2024-01-25T02:54:29;-0.30;99.90
68354;DHT22;55274;43.060;25.618;2024-01-25T02:56:54;-0.30;99.90
68354;DHT22;55274;43.060;25.618;2024-01-25T02:59:20;-0.30;99.90
68354;DHT22;55274;43.060;25.618;2024-01-25T03:01:46;-0.30;99.90
68354;DHT22;55274;43.060;25.618;2024-01-25T03:04:12;-0.30;99.90
68354;DHT22;55274;43.060;25.618;2024-01-25T03:06:38;-0.30;99.90
68354;DHT22;55274;43.060;25.618;2024-01-25T03:09:04;-0.40;99.90
68354;DHT22;55274;43.060;25.618;2024-01-25T03:11:30;-0.40;99.90
68354;DHT22;55274;43.060;25.618;2024-01-25T03:13:56;-0.40;99.90
68354;DHT22;55274;43.060;25.618;2024-01-25T03:16:22;-0.40;99.90
68354;DHT22;55274;43.060;25.618;2024-01-25T03:18:48;-0.40;99.90
68354;DHT22;55274;43.060;25.618;2024-01-25T03:21:14;-0.40;99.90
68354;DHT22;55274;43.060;25.618;2024-01-25T03:23:40;-0.40;99.90
68354;DHT22;55274;43.060;25.618;2024-01-25T03:26:06;-0.50;99.90
68354;DHT22;55274;43.060;25.618;2024-01-25T03:28:34;-0.50;99.90
68354;DHT22;55274;43.060;25.618;2024-01-25T03:31:00;-0.50;99.90
68354;DHT22;55274;43.060;25.618;2024-01-25T03:33:26;-0.50;99.90
68354;DHT22;55274;43.060;25.618;2024-01-25T03:35:54;-0.50;99.90
68354;DHT22;55274;43.060;25.618;2024-01-25T03:38:20;-0.50;99.90
68354;DHT22;55274;43.060;25.618;2024-01-25T03:40:46;-0.50;99.90
68354;DHT22;55274;43.060;25.618;2024-01-25T03:43:12;-0.50;99.90
68354;DHT22;55274;43.060;25.618;2024-01-25T03:45:38;-0.50;99.90
68354;DHT22;55274;43.060;25.618;2024-01-25T03:48:04;-0.50;99.90
68354;DHT22;55274;43.060;25.618;2024-01-25T03:50:32;-0.50;99.90
68354;DHT22;55274;43.060;25.618;2024-01-25T03:52:58;-0.20;99.90
68354;DHT22;55274;43.060;25.618;2024-01-25T03:55:24;-0.50;99.90
68354;DHT22;55274;43.060;25.618;2024-01-25T03:57:50;-0.50;99.90
68354;DHT22;55274;43.060;25.618;2024-01-25T04:00:16;-0.50;99.90
68354;DHT22;55274;43.060;25.618;2024-01-25T04:02:42;-0.50;99.90
68354;DHT22;55274;43.060;25.618;2024-01-25T04:05:08;-0.50;99.90
68354;DHT22;55274;43.060;25.618;2024-01-25T04:07:34;-0.50;99.90
68354;DHT22;55274;43.060;25.618;2024-01-25T04:10:00;-0.50;99.90
68354;DHT22;55274;43.060;25.618;2024-01-25T04:12:26;-0.50;99.90
68354;DHT22;55274;43.060;25.618;2024-01-25T04:14:52;-0.40;99.90
68354;DHT22;55274;43.060;25.618;2024-01-25T04:17:18;-0.40;99.90
68354;DHT22;55274;43.060;25.618;2024-01-25T04:19:44;-0.40;99.90
68354;DHT22;55274;43.060;25.618;2024-01-25T04:22:10;-0.50;99.90
68354;DHT22;55274;43.060;25.618;2024-01-25T04:24:37;-0.50;99.90
68354;DHT22;55274;43.060;25.618;2024-01-25T04:27:03;-0.40;99.90
68354;DHT22;55274;43.060;25.618;2024-01-25T04:29:29;-0.40;99.90
68354;DHT22;55274;43.060;25.618;2024-01-25T04:31:54;-0.40;99.90
68354;DHT22;55274;43.060;25.618;2024-01-25T04:34:20;-0.40;99.90
68354;DHT22;55274;43.060;25.618;2024-01-25T04:36:46;-0.40;99.90
68354;DHT22;55274;43.060;25.618;2024-01-25T04:39:12;-0.40;99.90
68354;DHT22;55274;43.060;25.618;2024-01-25T04:41:37;-0.40;99.90
68354;DHT22;55274;43.060;25.618;2024-01-25T04:44:03;-0.40;99.90
68354;DHT22;55274;43.060;25.618;2024-01-25T04:46:30;-0.40;99.90
68354;DHT22;55274;43.060;25.618;2024-01-25T04:49:02;-0.40;99.90
68354;DHT22;55274;43.060;25.618;2024-01-25T04:51:28;-0.40;99.90
68354;DHT22;55274;43.060;25.618;2024-01-25T04:53:54;-0.40;99.90
68354;DHT22;55274;43.060;25.618;2024-01-25T04:56:20;-0.40;99.90
68354;DHT22;55274;43.060;25.618;2024-01-25T04:58:45;-0.40;99.90
68354;DHT22;55274;43.060;25.618;2024-01-25T05:01:11;-0.40;99.90
68354;DHT22;55274;43.060;25.618;2024-01-25T05:03:37;-0.40;99.90
68354;DHT22;55274;43.060;25.618;2024-01-25T05:06:03;-0.40;99.90
68354;DHT22;55274;43.060;25.618;2024-01-25T05:08:29;-0.30;99.90
68354;DHT22;55274;43.060;25.618;2024-01-25T05:10:55;-0.30;99.90
68354;DHT22;55274;43.060;25.618;2024-01-25T05:13:21;-0.30;99.90
68354;DHT22;55274;43.060;25.618;2024-01-25T05:15:46;-0.20;99.90
68354;DHT22;55274;43.060;25.618;2024-01-25T05:18:12;-0.20;99.90
68354;DHT22;55274;43.060;25.618;2024-01-25T05:20:41;-0.20;99.90
68354;DHT22;55274;43.060;25.618;2024-01-25T05:23:07;-0.10;99.90
68354;DHT22;55274;43.060;25.618;2024-01-25T05:25:32;-0.10;99.90
68354;DHT22;55274;43.060;25.618;2024-01-25T05:27:59;0.00;99.90
68354;DHT22;55274;43.060;25.618;2024-01-25T05:30:25;0.00;99.90
68354;DHT22;55274;43.060;25.618;2024-01-25T05:32:51;0.10;99.90
68354;DHT22;55274;43.060;25.618;2024-01-25T05:35:19;0.10;99.90
68354;DHT22;55274;43.060;25.618;2024-01-25T05:37:44;0.20;99.90
68354;DHT22;55274;43.060;25.618;2024-01-25T05:40:11;0.20;99.90
68354;DHT22;55274;43.060;25.618;2024-01-25T05:42:37;0.40;99.90
68354;DHT22;55274;43.060;25.618;2024-01-25T05:45:05;0.50;99.90
68354;DHT22;55274;43.060;25.618;2024-01-25T05:47:32;0.60;99.90
68354;DHT22;55274;43.060;25.618;2024-01-25T05:49:57;0.60;99.90
68354;DHT22;55274;43.060;25.618;2024-01-25T05:52:23;0.80;99.90
68354;DHT22;55274;43.060;25.618;2024-01-25T05:54:50;0.90;99.90
68354;DHT22;55274;43.060;25.618;2024-01-25T05:57:16;1.00;99.90
68354;DHT22;55274;43.060;25.618;2024-01-25T05:59:46;1.10;99.90
68354;DHT22;55274;43.060;25.618;2024-01-25T06:02:12;1.10;99.90
68354;DHT22;55274;43.060;25.618;2024-01-25T06:04:37;1.50;99.90
68354;DHT22;55274;43.060;25.618;2024-01-25T06:07:03;1.60;99.90
68354;DHT22;55274;43.060;25.618;2024-01-25T06:09:29;1.60;99.90
68354;DHT22;55274;43.060;25.618;2024-01-25T06:11:57;1.80;99.90
68354;DHT22;55274;43.060;25.618;2024-01-25T06:14:24;2.00;99.90
68354;DHT22;55274;43.060;25.618;2024-01-25T06:16:49;2.10;99.90
68354;DHT22;55274;43.060;25.618;2024-01-25T06:19:15;2.60;99.90
68354;DHT22;55274;43.060;25.618;2024-01-25T06:21:41;3.00;99.90
68354;DHT22;55274;43.060;25.618;2024-01-25T06:24:07;3.30;99.90
68354;DHT22;55274;43.060;25.618;2024-01-25T06:26:33;3.60;99.90
68354;DHT22;55274;43.060;25.618;2024-01-25T06:28:59;4.00;99.90
68354;DHT22;55274;43.060;25.618;2024-01-25T06:31:25;4.30;99.90
68354;DHT22;55274;43.060;25.618;2024-01-25T06:33:51;4.60;99.90
68354;DHT22;55274;43.060;25.618;2024-01-25T06:36:21;4.70;99.90
68354;DHT22;55274;43.060;25.618;2024-01-25T06:38:48;4.80;99.90
68354;DHT22;55274;43.060;25.618;2024-01-25T06:41:14;4.90;99.90
68354;DHT22;55274;43.060;25.618;2024-01-25T06:43:41;5.20;99.90
68354;DHT22;55274;43.060;25.618;2024-01-25T06:46:07;5.40;99.90
68354;DHT22;55274;43.060;25.618;2024-01-25T06:48:34;5.50;99.90
68354;DHT22;55274;43.060;25.618;2024-01-25T06:51:00;5.70;99.90
68354;DHT22;55274;43.060;25.618;2024-01-25T06:53:28;5.70;99.90
68354;DHT22;55274;43.060;25.618;2024-01-25T06:55:54;6.40;99.90
68354;DHT22;55274;43.060;25.618;2024-01-25T06:58:20;7.00;99.90
68354;DHT22;55274;43.060;25.618;2024-01-25T07:00:46;7.70;99.90
68354;DHT22;55274;43.060;25.618;2024-01-25T07:03:13;8.10;99.90
68354;DHT22;55274;43.060;25.618;2024-01-25T07:05:39;8.70;99.90
68354;DHT22;55274;43.060;25.618;2024-01-25T07:08:05;9.10;99.90
68354;DHT22;55274;43.060;25.618;2024-01-25T07:10:31;9.60;99.90
68354;DHT22;55274;43.060;25.618;2024-01-25T07:12:57;10.00;99.90
68354;DHT22;55274;43.060;25.618;2024-01-25T07:15:23;10.40;98.70
68354;DHT22;55274;43.060;25.618;2024-01-25T07:17:49;10.70;96.40
68354;DHT22;55274;43.060;25.618;2024-01-25T07:20:15;11.10;96.20
68354;DHT22;55274;43.060;25.618;2024-01-25T07:22:40;11.50;93.00
68354;DHT22;55274;43.060;25.618;2024-01-25T07:25:06;11.80;91.40
68354;DHT22;55274;43.060;25.618;2024-01-25T07:27:32;12.10;89.70
68354;DHT22;55274;43.060;25.618;2024-01-25T07:29:58;12.30;86.30
68354;DHT22;55274;43.060;25.618;2024-01-25T07:32:24;12.40;86.90
68354;DHT22;55274;43.060;25.618;2024-01-25T07:34:50;12.70;84.20
68354;DHT22;55274;43.060;25.618;2024-01-25T07:37:16;12.80;82.20
68354;DHT22;55274;43.060;25.618;2024-01-25T07:39:44;12.80;82.40
68354;DHT22;55274;43.060;25.618;2024-01-25T07:42:11;12.70;82.20
68354;DHT22;55274;43.060;25.618;2024-01-25T07:44:38;12.70;81.80
68354;DHT22;55274;43.060;25.618;2024-01-25T07:47:04;12.90;82.50
68354;DHT22;55274;43.060;25.618;2024-01-25T07:49:30;13.10;80.50
68354;DHT22;55274;43.060;25.618;2024-01-25T07:51:56;13.10;79.60
68354;DHT22;55274;43.060;25.618;2024-01-25T07:54:22;12.90;80.40
68354;DHT22;55274;43.060;25.618;2024-01-25T07:56:48;13.00;78.40
68354;DHT22;55274;43.060;25.618;2024-01-25T07:59:14;13.00;77.30
68354;DHT22;55274;43.060;25.618;2024-01-25T08:01:40;13.10;78.30
68354;DHT22;55274;43.060;25.618;2024-01-25T08:04:05;13.00;77.80
68354;DHT22;55274;43.060;25.618;2024-01-25T08:06:32;13.00;77.10
68354;DHT22;55274;43.060;25.618;2024-01-25T08:08:58;12.90;77.30
68354;DHT22;55274;43.060;25.618;2024-01-25T08:11:42;12.90;77.20
68354;DHT22;55274;43.060;25.618;2024-01-25T08:14:08;12.70;77.20
68354;DHT22;55274;43.060;25.618;2024-01-25T08:16:34;12.40;76.40
68354;DHT22;55274;43.060;25.618;2024-01-25T08:19:00;12.30;77.30
68354;DHT22;55274;43.060;25.618;2024-01-25T08:21:26;12.40;78.90
68354;DHT22;55274;43.060;25.618;2024-01-25T08:23:52;12.40;76.60
68354;DHT22;55274;43.060;25.618;2024-01-25T08:26:18;12.50;77.80
68354;DHT22;55274;43.060;25.618;2024-01-25T08:28:44;12.70;78.40
68354;DHT22;55274;43.060;25.618;2024-01-25T08:31:10;12.80;76.90
68354;DHT22;55274;43.060;25.618;2024-01-25T08:33:36;13.00;76.30
68354;DHT22;55274;43.060;25.618;2024-01-25T08:36:02;13.10;75.00
68354;DHT22;55274;43.060;25.618;2024-01-25T08:38:28;13.00;74.00
68354;DHT22;55274;43.060;25.618;2024-01-25T08:40:54;13.00;73.60
68354;DHT22;55274;43.060;25.618;2024-01-25T08:43:20;12.90;73.30
68354;DHT22;55274;43.060;25.618;2024-01-25T08:45:46;13.00;73.10
68354;DHT22;55274;43.060;25.618;2024-01-25T08:48:11;12.80;73.50
68354;DHT22;55274;43.060;25.618;2024-01-25T08:50:39;12.90;74.80
68354;DHT22;55274;43.060;25.618;2024-01-25T08:53:05;13.00;73.60
68354;DHT22;55274;43.060;25.618;2024-01-25T08:55:31;13.10;72.70
68354;DHT22;55274;43.060;25.618;2024-01-25T08:57:57;13.40;72.90
68354;DHT22;55274;43.060;25.618;2024-01-25T09:00:23;13.50;70.80
68354;DHT22;55274;43.060;25.618;2024-01-25T09:02:49;13.60;71.10
68354;DHT22;55274;43.060;25.618;2024-01-25T09:05:15;13.70;70.40
68354;DHT22;55274;43.060;25.618;2024-01-25T09:07:40;13.60;70.50
68354;DHT22;55274;43.060;25.618;2024-01-25T09:10:07;13.50;69.60
68354;DHT22;55274;43.060;25.618;2024-01-25T09:12:34;13.60;70.20
68354;DHT22;55274;43.060;25.618;2024-01-25T09:15:01;13.70;70.40
68354;DHT22;55274;43.060;25.618;2024-01-25T09:17:27;13.70;69.90
68354;DHT22;55274;43.060;25.618;2024-01-25T09:19:53;13.80;69.70
68354;DHT22;55274;43.060;25.618;2024-01-25T09:22:19;13.80;69.20
68354;DHT22;55274;43.060;25.618;2024-01-25T09:24:47;13.90;69.10
68354;DHT22;55274;43.060;25.618;2024-01-25T09:27:14;13.90;69.00
68354;DHT22;55274;43.060;25.618;2024-01-25T09:29:41;13.90;68.80
68354;DHT22;55274;43.060;25.618;2024-01-25T09:32:07;14.00;68.80
68354;DHT22;55274;43.060;25.618;2024-01-25T09:34:39;14.10;68.60
68354;DHT22;55274;43.060;25.618;2024-01-25T09:37:05;14.00;67.40
68354;DHT22;55274;43.060;25.618;2024-01-25T09:39:32;13.90;68.30
68354;DHT22;55274;43.060;25.618;2024-01-25T09:41:58;13.80;68.70
68354;DHT22;55274;43.060;25.618;2024-01-25T09:44:24;13.80;68.70
68354;DHT22;55274;43.060;25.618;2024-01-25T09:46:51;13.80;69.00
68354;DHT22;55274;43.060;25.618;2024-01-25T09:49:17;13.80;67.60
68354;DHT22;55274;43.060;25.618;2024-01-25T09:51:44;13.70;68.60
68354;DHT22;55274;43.060;25.618;2024-01-25T09:54:10;13.70;68.30
68354;DHT22;55274;43.060;25.618;2024-01-25T09:56:36;13.70;68.40
68354;DHT22;55274;43.060;25.618;2024-01-25T09:59:02;13.60;67.80
68354;DHT22;55274;43.060;25.618;2024-01-25T10:01:30;13.60;68.20
68354;DHT22;55274;43.060;25.618;2024-01-25T10:03:56;13.40;67.90
68354;DHT22;55274;43.060;25.618;2024-01-25T10:06:22;13.20;68.60
68354;DHT22;55274;43.060;25.618;2024-01-25T10:08:48;13.10;69.70
68354;DHT22;55274;43.060;25.618;2024-01-25T10:11:15;12.90;69.60
68354;DHT22;55274;43.060;25.618;2024-01-25T10:16:14;12.80;70.50
68354;DHT22;55274;43.060;25.618;2024-01-25T10:18:41;12.80;70.40
68354;DHT22;55274;43.060;25.618;2024-01-25T10:21:10;12.80;71.00
68354;DHT22;55274;43.060;25.618;2024-01-25T10:23:39;12.80;70.60
68354;DHT22;55274;43.060;25.618;2024-01-25T10:26:07;12.70;70.70
68354;DHT22;55274;43.060;25.618;2024-01-25T10:28:33;12.70;71.60
68354;DHT22;55274;43.060;25.618;2024-01-25T10:31:03;12.80;71.10
68354;DHT22;55274;43.060;25.618;2024-01-25T10:33:30;12.90;70.90
68354;DHT22;55274;43.060;25.618;2024-01-25T10:35:57;12.90;70.60
68354;DHT22;55274;43.060;25.618;2024-01-25T10:38:34;12.90;70.60
68354;DHT22;55274;43.060;25.618;2024-01-25T10:41:02;13.00;70.60
68354;DHT22;55274;43.060;25.618;2024-01-25T10:43:31;12.90;69.70
68354;DHT22;55274;43.060;25.618;2024-01-25T10:46:01;12.90;70.10
68354;DHT22;55274;43.060;25.618;2024-01-25T10:48:28;12.80;70.10
68354;DHT22;55274;43.060;25.618;2024-01-25T10:50:55;12.80;70.60
68354;DHT22;55274;43.060;25.618;2024-01-25T10:53:24;12.80;70.70
68354;DHT22;55274;43.060;25.618;2024-01-25T10:55:50;12.70;70.50
68354;DHT22;55274;43.060;25.618;2024-01-25T10:58:17;12.60;70.50
68354;DHT22;55274;43.060;25.618;2024-01-25T11:00:55;12.50;71.00
68354;DHT22;55274;43.060;25.618;2024-01-25T11:03:27;12.50;71.70
68354;DHT22;55274;43.060;25.618;2024-01-25T11:06:12;12.50;71.40
68354;DHT22;55274;43.060;25.618;2024-01-25T11:08:38;12.40;71.40
68354;DHT22;55274;43.060;25.618;2024-01-25T11:11:08;12.40;71.30
68354;DHT22;55274;43.060;25.618;2024-01-25T11:13:35;12.40;71.50
68354;DHT22;55274;43.060;25.618;2024-01-25T11:16:17;12.40;71.30
68354;DHT22;55274;43.060;25.618;2024-01-25T11:18:54;12.30;70.90
68354;DHT22;55274;43.060;25.618;2024-01-25T11:21:26;12.40;71.00
68354;DHT22;55274;43.060;25.618;2024-01-25T11:24:02;12.50;70.40
68354;DHT22;55274;43.060;25.618;2024-01-25T11:26:29;12.60;70.40
68354;DHT22;55274;43.060;25.618;2024-01-25T11:28:57;12.70;70.50
68354;DHT22;55274;43.060;25.618;2024-01-25T11:31:27;12.80;69.50
68354;DHT22;55274;43.060;25.618;2024-01-25T11:33:59;12.90;70.20
68354;DHT22;55274;43.060;25.618;2024-01-25T11:36:26;12.90;69.50
68354;DHT22;55274;43.060;25.618;2024-01-25T11:38:52;12.80;68.20
68354;DHT22;55274;43.060;25.618;2024-01-25T11:41:19;12.70;69.10
68354;DHT22;55274;43.060;25.618;2024-01-25T11:43:45;12.80;69.20
68354;DHT22;55274;43.060;25.618;2024-01-25T11:46:13;12.80;68.20
68354;DHT22;55274;43.060;25.618;2024-01-25T11:48:40;12.70;69.00
68354;DHT22;55274;43.060;25.618;2024-01-25T11:51:09;12.60;68.60
68354;DHT22;55274;43.060;25.618;2024-01-25T11:53:35;12.50;69.10
68354;DHT22;55274;43.060;25.618;2024-01-25T11:56:02;12.50;68.80
68354;DHT22;55274;43.060;25.618;2024-01-25T11:58:29;12.40;68.80
68354;DHT22;55274;43.060;25.618;2024-01-25T12:00:55;12.50;69.30
68354;DHT22;55274;43.060;25.618;2024-01-25T12:03:22;12.40;68.90
68354;DHT22;55274;43.060;25.618;2024-01-25T12:05:48;12.30;69.20
68354;DHT22;55274;43.060;25.618;2024-01-25T12:08:14;12.30;69.30
68354;DHT22;55274;43.060;25.618;2024-01-25T12:10:39;12.20;68.70
68354;DHT22;55274;43.060;25.618;2024-01-25T12:13:07;12.10;68.80
68354;DHT22;55274;43.060;25.618;2024-01-25T12:15:35;12.00;69.20
68354;DHT22;55274;43.060;25.618;2024-01-25T12:18:01;11.90;69.20
68354;DHT22;55274;43.060;25.618;2024-01-25T12:20:28;12.00;69.40
68354;DHT22;55274;43.060;25.618;2024-01-25T12:22:54;12.00;68.10
68354;DHT22;55274;43.060;25.618;2024-01-25T12:25:20;12.00;68.80
68354;DHT22;55274;43.060;25.618;2024-01-25T12:27:47;12.10;69.00
68354;DHT22;55274;43.060;25.618;2024-01-25T12:30:15;12.20;68.80
68354;DHT22;55274;43.060;25.618;2024-01-25T12:32:41;12.30;68.60
68354;DHT22;55274;43.060;25.618;2024-01-25T12:35:07;12.40;68.30
68354;DHT22;55274;43.060;25.618;2024-01-25T12:37:34;12.50;68.20
68354;DHT22;55274;43.060;25.618;2024-01-25T12:40:00;12.50;67.90
68354;DHT22;55274;43.060;25.618;2024-01-25T12:42:26;12.40;68.20
68354;DHT22;55274;43.060;25.618;2024-01-25T12:44:53;12.40;69.50
68354;DHT22;55274;43.060;25.618;2024-01-25T12:47:21;12.30;68.60
68354;DHT22;55274;43.060;25.618;2024-01-25T12:49:47;12.20;69.30
68354;DHT22;55274;43.060;25.618;2024-01-25T12:52:15;12.20;69.60
68354;DHT22;55274;43.060;25.618;2024-01-25T12:54:41;12.00;69.70
68354;DHT22;55274;43.060;25.618;2024-01-25T12:57:07;11.90;69.50
68354;DHT22;55274;43.060;25.618;2024-01-25T12:59:36;11.90;69.60
68354;DHT22;55274;43.060;25.618;2024-01-25T13:02:03;11.70;70.30
68354;DHT22;55274;43.060;25.618;2024-01-25T13:04:29;11.70;70.90
68354;DHT22;55274;43.060;25.618;2024-01-25T13:06:55;11.60;70.60
68354;DHT22;55274;43.060;25.618;2024-01-25T13:09:25;11.60;70.40
68354;DHT22;55274;43.060;25.618;2024-01-25T13:11:51;11.50;70.90
68354;DHT22;55274;43.060;25.618;2024-01-25T13:14:18;11.40;70.90
68354;DHT22;55274;43.060;25.618;2024-01-25T13:16:44;11.40;71.30
68354;DHT22;55274;43.060;25.618;2024-01-25T13:19:09;11.30;71.10
68354;DHT22;55274;43.060;25.618;2024-01-25T13:21:37;11.20;71.40
68354;DHT22;55274;43.060;25.618;2024-01-25T13:24:04;11.20;71.80
68354;DHT22;55274;43.060;25.618;2024-01-25T13:26:30;11.10;72.50
68354;DHT22;55274;43.060;25.618;2024-01-25T13:28:56;11.10;72.50
68354;DHT22;55274;43.060;25.618;2024-01-25T13:31:21;11.10;72.70
68354;DHT22;55274;43.060;25.618;2024-01-25T13:33:47;11.20;72.50
68354;DHT22;55274;43.060;25.618;2024-01-25T13:36:13;11.20;72.70
68354;DHT22;55274;43.060;25.618;2024-01-25T13:38:43;11.30;72.10
68354;DHT22;55274;43.060;25.618;2024-01-25T13:41:08;11.30;71.50
68354;DHT22;55274;43.060;25.618;2024-01-25T13:43:34;11.30;71.20
68354;DHT22;55274;43.060;25.618;2024-01-25T13:46:00;11.40;70.50
68354;DHT22;55274;43.060;25.618;2024-01-25T13:48:26;11.40;71.00
68354;DHT22;55274;43.060;25.618;2024-01-25T13:50:52;11.40;70.80
68354;DHT22;55274;43.060;25.618;2024-01-25T13:53:18;11.30;70.60
68354;DHT22;55274;43.060;25.618;2024-01-25T13:55:44;11.40;71.30
68354;DHT22;55274;43.060;25.618;2024-01-25T13:58:10;11.30;70.80
68354;DHT22;55274;43.060;25.618;2024-01-25T14:00:36;11.30;71.40
68354;DHT22;55274;43.060;25.618;2024-01-25T14:03:02;11.20;71.20
68354;DHT22;55274;43.060;25.618;2024-01-25T14:05:28;11.20;71.40
68354;DHT22;55274;43.060;25.618;2024-01-25T14:07:54;11.10;70.80
68354;DHT22;55274;43.060;25.618;2024-01-25T14:10:19;11.00;70.80
68354;DHT22;55274;43.060;25.618;2024-01-25T14:12:46;11.00;70.70
68354;DHT22;55274;43.060;25.618;2024-01-25T14:15:13;10.90;70.60
68354;DHT22;55274;43.060;25.618;2024-01-25T14:17:38;10.80;71.00
68354;DHT22;55274;43.060;25.618;2024-01-25T14:20:05;10.80;71.50
68354;DHT22;55274;43.060;25.618;2024-01-25T14:22:31;10.70;71.40
68354;DHT22;55274;43.060;25.618;2024-01-25T14:24:57;10.60;71.70
68354;DHT22;55274;43.060;25.618;2024-01-25T14:27:23;10.60;72.40
68354;DHT22;55274;43.060;25.618;2024-01-25T14:29:48;10.50;72.40
68354;DHT22;55274;43.060;25.618;2024-01-25T14:32:14;10.50;72.20
68354;DHT22;55274;43.060;25.618;2024-01-25T14:34:40;10.40;71.90
68354;DHT22;55274;43.060;25.618;2024-01-25T14:37:06;10.40;72.60
68354;DHT22;55274;43.060;25.618;2024-01-25T14:39:32;10.30;72.80
68354;DHT22;55274;43.060;25.618;2024-01-25T14:41:57;10.30;73.00
68354;DHT22;55274;43.060;25.618;2024-01-25T14:44:23;10.30;72.70
68354;DHT22;55274;43.060;25.618;2024-01-25T14:46:49;10.20;72.60
68354;DHT22;55274;43.060;25.618;2024-01-25T14:49:15;10.20;73.00
68354;DHT22;55274;43.060;25.618;2024-01-25T14:51:41;10.10;73.30
68354;DHT22;55274;43.060;25.618;2024-01-25T14:54:07;10.10;73.50
68354;DHT22;55274;43.060;25.618;2024-01-25T14:56:33;10.10;73.10
68354;DHT22;55274;43.060;25.618;2024-01-25T14:58:59;10.00;73.30
68354;DHT22;55274;43.060;25.618;2024-01-25T15:01:25;10.00;73.60
68354;DHT22;55274;43.060;25.618;2024-01-25T15:03:53;10.00;73.70
68354;DHT22;55274;43.060;25.618;2024-01-25T15:06:20;9.90;73.40
68354;DHT22;55274;43.060;25.618;2024-01-25T15:08:46;9.90;73.20
68354;DHT22;55274;43.060;25.618;2024-01-25T15:11:12;9.90;73.10
68354;DHT22;55274;43.060;25.618;2024-01-25T15:13:38;9.80;73.10
68354;DHT22;55274;43.060;25.618;2024-01-25T15:16:04;9.80;73.50